You are not logged in, Click here to log in
機場資訊:RJFU Welcome to Taiwan Airways 台灣虛擬航空
ICAO: RJFU Country: 日本長崎縣大村市
Latitude: 32.9136 Longitude: 129.918
Total Arrivals: 11 Total Departures: 10
Latest Arrival: HDJ735 (RJTT-RJFU)Arthur. Kung Latest Departure: B7B802 (RJFU-RCSS)Arthur. Kung
Scenery:
METAR : RJFU 211200Z 01011KT 9999 FEW050 SCT/// 19/15 Q1012

長崎空港NGS